Flight Track Log - Related Links

Times and Time Zones

All times are in EDT time to prevent confusion due to time zone crossing. See the N8659B flight status page for this flight to view local times or setup timezone preferences in your user account.

Time Position Orientation Groundspeed Altitude Reporting Facility
EDT Latitude Longitude Course Direction KTS MPH feet Rate Location/Type
Tue 03:50:06 PM 42.2017 -83.3583 171° South 165 190 1,200  Level Cleveland Center
Tue 03:50:37 PM 42.1794 -83.3533 176° South 177 204 2,000 1,859 Climbing FAA TRACON SMA TRACON (SMA)
Tue 03:51:17 PM 42.1386 -83.3497 177° South 215 247 3,400 1,852 Climbing FAA TRACON SMA TRACON (SMA)
Tue 03:51:58 PM 42.0983 -83.3469 167° South 232 267 4,500 2,296 Climbing FAA TRACON SMA TRACON (SMA)
Tue 03:52:38 PM 42.0464 -83.3308 113° Southeast 276 318 6,500 2,850 Climbing FAA TRACON SMA TRACON (SMA)
Tue 03:53:18 PM 42.0278 -83.2706 71° East 295 339 8,300 2,325 Climbing FAA TRACON SMA TRACON (SMA)
Tue 03:53:58 PM 42.0464 -83.1958 71° East 310 357 9,600 2,175 Climbing FAA TRACON SMA TRACON (SMA)
Tue 03:54:38 PM 42.0661 -83.1169 72° East 320 368 11,200 1,425 Climbing FAA TRACON SMA TRACON (SMA)
Tue 03:55:18 PM 42.0867 -83.0311 72° East 362 417 11,500 519 Climbing FAA TRACON SMA TRACON (SMA)
Tue 03:55:59 PM 42.1075 -82.9442 72° East 386 444 11,900 1,200 Climbing FAA TRACON SMA TRACON (SMA)
Tue 03:56:38 PM 42.1314 -82.8453 72° East 401 461 13,100 1,899 Climbing FAA TRACON SMA TRACON (SMA)
Tue 03:57:18 PM 42.1542 -82.7492 88° East 398 458 14,400 1,800 Climbing FAA TRACON SMA TRACON (SMA)
Tue 03:57:58 PM 42.1567 -82.6594 107° East 386 444 15,500 1,575 Climbing FAA TRACON SMA TRACON (SMA)
Tue 03:58:38 PM 42.1347 -82.5656 108° East 381 438 16,500 1,333 Climbing FAA TRACON SMA TRACON (SMA)
Tue 03:59:19 PM 42.1125 -82.4728 108° East 384 442 17,300 1,275 Climbing FAA TRACON SMA TRACON (SMA)
Tue 03:59:58 PM 42.0903 -82.3819 108° East 392 451 18,200 1,367 Climbing FAA TRACON SMA TRACON (SMA)
Tue 04:00:38 PM 42.0681 -82.2886 108° East 395 455 19,100 1,200 Climbing FAA TRACON SMA TRACON (SMA)
Tue 04:01:18 PM 42.0500 -82.2119 109° East 397 457 19,800 1,190 Climbing FAA TRACON SMA TRACON (SMA)
Tue 04:02:39 PM 41.9989 -82.0108 109° East 400 460 21,500 1,098 Climbing Cleveland Center
Tue 04:03:51 PM 41.9531 -81.8283 109° East 419 482 22,600 909 Climbing Cleveland Center
Tue 04:04:51 PM 41.9150 -81.6797 107° East 425 489 23,500 850 Climbing Cleveland Center
Tue 04:05:51 PM 41.8831 -81.5425 110° East 430 495 24,300 750 Climbing Cleveland Center
Tue 04:06:51 PM 41.8364 -81.3747 108° East 430 495 25,000 350 Climbing Cleveland Center
Tue 04:07:51 PM 41.7917 -81.1958 109° East 443 510 25,000  Level Cleveland Center
Tue 04:08:51 PM 41.7506 -81.0339 109° East 450 518 25,000  Level Cleveland Center
Tue 04:09:51 PM 41.7178 -80.9058 109° East 455 524 25,000  Level Cleveland Center
Tue 04:11:03 PM 41.6578 -80.6778 110° East 460 529 25,000  Level Cleveland Center
Tue 04:12:03 PM 41.6161 -80.5219 109° East 454 522 25,000  Level Cleveland Center
Tue 04:13:15 PM 41.5742 -80.3639 108° East 449 517 25,000  Level Cleveland Center
Tue 04:14:15 PM 41.5256 -80.1700 109° East 449 517 25,000 -350 Level Cleveland Center
Tue 04:15:15 PM 41.4833 -80.0094 111° Southeast 449 517 24,300 -500 Descending Cleveland Center
Tue 04:16:15 PM 41.4514 -79.8961 111° Southeast 458 527 24,000 -150 Descending Cleveland Center
Tue 04:17:15 PM 41.3981 -79.7083 110° East 458 527 24,000  Level Cleveland Center
Tue 04:18:15 PM 41.3506 -79.5347 109° East 451 519 24,000  Level Cleveland Center
Tue 04:19:15 PM 41.3181 -79.4081 111° Southeast 451 519 24,000 -800 Level Cleveland Center
Tue 04:20:15 PM 41.2661 -79.2322 110° East 451 519 22,400 -1,900 Descending Cleveland Center
Tue 04:21:15 PM 41.2247 -79.0786 110° East 446 513 20,200 -2,314 Descending Cleveland Center
Tue 04:22:48 PM 41.1611 -78.8497 110° East 424 488 16,500 -2,146 Descending New York Center
Tue 04:23:46 PM 41.1294 -78.7328 112° Southeast 390 449 14,800 -1,765 Descending New York Center
Tue 04:24:47 PM 41.0847 -78.5897 96° East 374 430 13,000 -1,686 Descending New York Center
Tue 04:25:47 PM 41.0744 -78.4592 92° East 368 423 11,400 -923 Descending New York Center
Tue 04:26:57 PM 41.0719 -78.3378 91° East 362 417 11,000 -687 Descending New York Center
Tue 04:27:58 PM 41.0692 -78.1833 90° East 357 411 9,900 -1,356 Descending New York Center
Tue 04:29:23 PM 41.0697 -78.0375 91° East 318 366 7,700 -1,603 Descending New York Center
Tue 04:30:24 PM 41.0672 -77.9078 89° East 300 345 6,000 -779 Descending New York Center
Tue 04:31:34 PM 41.0692 -77.8033 96° East 265 305 6,000  Level New York Center
Tue 04:32:34 PM 41.0619 -77.7172 134° Southeast 244 281 6,000 -793 Level New York Center
Tue 04:33:35 PM 41.0136 -77.6517 187° South 225 259 4,400 -893 Descending New York Center
Tue 04:34:35 PM 40.9631 -77.6603 228° Southwest 180 207 4,200 -347 Descending New York Center
Tue 04:35:36 PM 40.9311 -77.7067 234° Southwest 144 166 3,700 -655 Descending New York Center
Tue 04:36:34 PM 40.9056 -77.7533 235° Southwest 149 171 2,900 -814 Descending New York Center
Tue 04:37:34 PM 40.8844 -77.7925 220° Southwest 149 171 2,100 -550 Descending New York Center
Tue 04:38:34 PM 40.8553 -77.8253 220° Southwest 149 171 1,800 -300 Descending New York Center

Login

Don't have an account? Register now (free) for customized features, flight alerts, and more!